Terminal Aerodrome Forecast
Issued by NWS Nashville, TN

Current Version | Previous Version | Text Only | Print | Product List | Glossary Off
Versions: 1 2 3 4 5 6 7 8 9 10 11 12 13 14 15 16 17 18 19 20 21 22 23 24 25

000
FTUS44 KOHX 312200 AAB
TAFBNA
TAF AMD
KBNA 312220Z 3122/0118 33015G25KT P6SM SCT030 BKN060
      TEMPO 3122/0102 BKN030
     FM010200 33015G25KT P6SM BKN035
     FM011400 35015KT P6SM SCT050=

USA.gov is the U.S. government's official web portal to all federal, state and local government web resources and services.